Time;durP1;ratioP1;P1;durP2;ratioP2;P2;SDS_P1;SDS_P2;PMS_P1;PMS_P2;Temp;Humidity;BMP_temperature;BMP_pressure;BME280_temperature;BME280_humidity;BME280_pressure;Samples;Min_cycle;Max_cycle;Signal;HPM_P1;HPM_P2
2022/08/05 00:00:14;;;;;;;;;;;;;;;25.63;45.48;96480.81;30002;983;1765;-60
2022/08/05 00:00:54;;;;;;;;;;;;;;;25.60;45.27;96481.59;30002;986;1864;-60
2022/08/05 00:01:25;;;;;;;;;;;;;;;25.60;45.57;96481.59;30002;983;1877;-59
2022/08/05 00:01:57;;;;;;;;;;;;;;;25.59;45.60;96485.56;30002;982;1877;-61
2022/08/05 00:02:28;;;;;;;;;;;;;;;25.58;45.54;96478.44;30002;982;1877;-59
2022/08/05 00:03:03;;;;;;;;;;;;;;;25.57;45.49;96472.06;30002;982;1877;-61
2022/08/05 00:03:34;;;;;;;;;;;;;;;25.57;45.72;96480.41;30002;982;1877;-61
2022/08/05 00:04:06;;;;;;;;;;;;;;;25.57;45.48;96480.41;30002;982;1864;-60
2022/08/05 00:04:36;;;;;;;;;;;;;;;25.57;45.42;96471.28;30002;982;1868;-55
2022/08/05 00:05:17;;;;;;;;;;;;;;;25.57;45.15;96474.06;30002;982;1877;-54
2022/08/05 00:05:48;;;;;;;;;;;;;;;25.56;45.60;96469.69;30002;983;1876;-54
2022/08/05 00:06:21;;;;;;;;;;;;;;;25.56;45.11;96475.25;30002;983;1876;-55
2022/08/05 00:06:54;;;;;;;;;;;;;;;25.56;45.24;96476.03;30002;983;1876;-55
2022/08/05 00:07:30;;;;;;;;;;;;;;;25.57;45.51;96471.28;30002;983;1863;-60
2022/08/05 00:08:01;;;;;;;;;;;;;;;25.57;45.26;96471.28;30002;983;1855;-61
2022/08/05 00:08:35;;;;;;;;;;;;;;;25.57;45.28;96479.63;30002;983;1877;-55
2022/08/05 00:09:07;;;;;;;;;;;;;;;25.58;45.41;96472.87;30002;983;1877;-55
2022/08/05 00:09:39;;;;;;;;;;;;;;;25.57;45.56;96482.41;30002;982;1877;-61
2022/08/05 00:10:11;;;;;;;;;;;;;;;25.57;45.74;96476.84;30002;982;1877;-60
2022/08/05 00:10:44;;;;;;;;;;;;;;;25.55;45.56;96479.22;30002;982;1877;-60
2022/08/05 00:11:16;;;;;;;;;;;;;;;25.55;45.60;96482.00;30002;982;1877;-61
2022/08/05 00:11:49;;;;;;;;;;;;;;;25.57;45.76;96471.28;30002;982;1877;-54
2022/08/05 00:12:20;;;;;;;;;;;;;;;25.58;45.56;96479.22;30002;982;1877;-54
2022/08/05 00:12:52;;;;;;;;;;;;;;;25.60;45.81;96481.59;30002;983;1862;-60
2022/08/05 00:13:24;;;;;;;;;;;;;;;25.63;45.60;96475.25;30002;983;1854;-54
2022/08/05 00:13:57;;;;;;;;;;;;;;;25.63;45.65;96481.63;30002;983;1876;-55
2022/08/05 00:14:28;;;;;;;;;;;;;;;25.63;46.05;96483.56;30002;983;1877;-55
2022/08/05 00:14:59;;;;;;;;;;;;;;;25.61;45.63;96483.97;30002;983;1877;-61
2022/08/05 00:15:30;;;;;;;;;;;;;;;25.62;45.78;96485.56;30002;983;1877;-61
2022/08/05 00:16:02;;;;;;;;;;;;;;;25.61;45.66;96483.19;30002;983;1877;-55
2022/08/05 00:16:33;;;;;;;;;;;;;;;25.60;45.57;96492.72;30002;983;1877;-54
2022/08/05 00:17:04;;;;;;;;;;;;;;;25.57;45.45;96483.19;30002;982;1877;-59
2022/08/05 00:17:37;;;;;;;;;;;;;;;25.56;45.85;96487.16;30002;982;1877;-60
2022/08/05 00:18:08;;;;;;;;;;;;;;;25.56;46.10;96486.38;30002;982;1877;-55
2022/08/05 00:18:42;;;;;;;;;;;;;;;25.56;45.63;96486.38;30002;982;1864;-60
2022/08/05 00:19:14;;;;;;;;;;;;;;;25.55;45.53;96484.78;30002;982;1868;-56
2022/08/05 00:19:45;;;;;;;;;;;;;;;25.54;45.84;96481.22;30002;982;1877;-54
2022/08/05 00:20:16;;;;;;;;;;;;;;;25.57;45.64;96477.63;30002;982;1877;-54
2022/08/05 00:20:47;;;;;;;;;;;;;;;25.56;45.59;96480.81;30002;983;1876;-60
2022/08/05 00:21:18;;;;;;;;;;;;;;;25.56;45.63;96489.94;30002;983;1876;-59
2022/08/05 00:21:49;;;;;;;;;;;;;;;25.54;45.78;96483.19;30002;983;1876;-54
2022/08/05 00:22:20;;;;;;;;;;;;;;;25.51;45.39;96481.22;30002;983;1877;-60
2022/08/05 00:22:51;;;;;;;;;;;;;;;25.50;45.72;96487.97;30001;983;1877;-60
2022/08/05 00:23:22;;;;;;;;;;;;;;;25.49;45.09;96486.38;30001;983;1877;-59
2022/08/05 00:23:53;;;;;;;;;;;;;;;25.48;44.71;96485.59;30001;972;1885;-59
2022/08/05 00:24:23;;;;;;;;;;;;;;;25.47;44.71;96488.75;30002;983;1868;-60
2022/08/05 00:24:55;;;;;;;;;;;;;;;25.47;45.02;96488.75;30001;982;1877;-59
2022/08/05 00:25:28;;;;;;;;;;;;;;;25.48;44.75;96482.00;30001;982;1877;-60
2022/08/05 00:25:59;;;;;;;;;;;;;;;25.48;45.06;96480.03;30001;982;1877;-54
2022/08/05 00:26:31;;;;;;;;;;;;;;;25.50;44.97;96487.97;30001;982;1864;-54
2022/08/05 00:27:02;;;;;;;;;;;;;;;25.50;44.80;96487.97;30001;982;1868;-59
2022/08/05 00:27:33;;;;;;;;;;;;;;;25.52;44.69;96475.25;30001;983;1876;-55
2022/08/05 00:28:04;;;;;;;;;;;;;;;25.54;44.59;96472.87;30001;983;1877;-59
2022/08/05 00:28:35;;;;;;;;;;;;;;;25.57;44.53;96474.06;30001;983;1876;-53
2022/08/05 00:29:06;;;;;;;;;;;;;;;25.59;44.44;96474.44;30001;983;1876;-60
2022/08/05 00:29:37;;;;;;;;;;;;;;;25.62;44.01;96468.91;30001;983;1877;-54
2022/08/05 00:30:09;;;;;;;;;;;;;;;25.64;44.20;96477.63;30001;983;1877;-58
2022/08/05 00:30:40;;;;;;;;;;;;;;;25.67;44.13;96471.25;30001;983;1877;-54
2022/08/05 00:31:12;;;;;;;;;;;;;;;25.70;44.28;96478.00;30001;983;1877;-54
2022/08/05 00:31:43;;;;;;;;;;;;;;;25.72;43.99;96467.28;30001;983;1864;-59
2022/08/05 00:32:14;;;;;;;;;;;;;;;25.72;43.81;96470.06;30001;982;1868;-54
2022/08/05 00:32:45;;;;;;;;;;;;;;;25.73;44.02;96468.06;30001;982;1877;-55
2022/08/05 00:33:16;;;;;;;;;;;;;;;25.73;43.95;96466.09;30001;982;1877;-59
2022/08/05 00:33:47;;;;;;;;;;;;;;;25.75;43.79;96466.47;30002;982;1783;-59
2022/08/05 00:34:19;;;;;;;;;;;;;;;25.78;43.56;96470.44;30001;982;1877;-58
2022/08/05 00:34:53;;;;;;;;;;;;;;;25.77;43.62;96469.66;30001;983;1876;-59
2022/08/05 00:35:24;;;;;;;;;;;;;;;25.80;43.29;96470.84;30001;983;1876;-60
2022/08/05 00:35:54;;;;;;;;;;;;;;;25.80;43.34;96473.63;30001;983;1876;-54
2022/08/05 00:36:25;;;;;;;;;;;;;;;25.80;43.33;96474.41;30001;983;1876;-54
2022/08/05 00:36:56;;;;;;;;;;;;;;;25.81;43.47;96469.66;30001;983;1863;-60
2022/08/05 00:37:27;;;;;;;;;;;;;;;25.81;43.52;96478.78;30001;983;1868;-55
2022/08/05 00:37:58;;;;;;;;;;;;;;;25.82;43.63;96477.59;30001;983;1877;-59
2022/08/05 00:38:28;;;;;;;;;;;;;;;25.81;43.71;96476.00;30001;983;1877;-54
2022/08/05 00:38:59;;;;;;;;;;;;;;;25.81;43.70;96480.75;30001;983;1877;-55
2022/08/05 00:39:30;;;;;;;;;;;;;;;25.80;44.03;96482.75;30001;983;1877;-54
2022/08/05 00:40:01;;;;;;;;;;;;;;;25.78;44.11;96476.78;30001;982;1877;-55
2022/08/05 00:40:32;;;;;;;;;;;;;;;25.76;44.21;96479.19;30001;982;1877;-54
2022/08/05 00:41:06;;;;;;;;;;;;;;;25.75;44.29;96490.69;30001;982;1877;-55
2022/08/05 00:41:37;;;;;;;;;;;;;;;25.73;44.46;96485.53;30001;982;1877;-55
2022/08/05 00:42:15;;;;;;;;;;;;;;;25.71;44.70;96488.72;30001;983;1863;-60
2022/08/05 00:42:46;;;;;;;;;;;;;;;25.69;44.37;96488.31;30001;983;1867;-54
2022/08/05 00:43:21;;;;;;;;;;;;;;;25.68;44.64;96488.72;30001;983;1863;-54
2022/08/05 00:43:51;;;;;;;;;;;;;;;25.66;44.64;96502.22;30001;983;1868;-55
2022/08/05 00:44:22;;;;;;;;;;;;;;;25.62;45.42;96496.69;30001;983;1876;-54
2022/08/05 00:44:53;;;;;;;;;;;;;;;25.60;44.91;96501.03;30001;983;1863;-60
2022/08/05 00:45:24;;;;;;;;;;;;;;;25.56;45.08;96503.81;30001;983;1868;-54
2022/08/05 00:45:55;;;;;;;;;;;;;;;25.54;45.25;96499.88;30001;983;1877;-54
2022/08/05 00:46:26;;;;;;;;;;;;;;;25.52;45.00;96502.25;30001;983;1877;-59
2022/08/05 00:46:57;;;;;;;;;;;;;;;25.50;45.07;96504.63;30001;983;1877;-55
2022/08/05 00:47:27;;;;;;;;;;;;;;;25.48;45.09;96496.69;30001;982;1877;-55
2022/08/05 00:47:58;;;;;;;;;;;;;;;25.47;45.16;96506.22;30001;982;1877;-60
2022/08/05 00:48:29;;;;;;;;;;;;;;;25.46;45.09;96509.38;30001;982;1877;-55
2022/08/05 00:49:00;;;;;;;;;;;;;;;25.44;45.42;96517.31;30001;982;1877;-54
2022/08/05 00:49:31;;;;;;;;;;;;;;;25.41;45.15;96515.34;30001;982;1877;-60
2022/08/05 00:50:02;;;;;;;;;;;;;;;25.38;45.32;96514.16;30001;983;1863;-54
2022/08/05 00:50:34;;;;;;;;;;;;;;;25.36;45.70;96513.75;30001;983;1868;-55
2022/08/05 00:51:04;;;;;;;;;;;;;;;25.35;45.74;96504.63;30001;983;1876;-54
2022/08/05 00:51:35;;;;;;;;;;;;;;;25.34;45.11;96514.16;30001;983;1876;-54
2022/08/05 00:52:06;;;;;;;;;;;;;;;25.32;45.24;96513.75;30002;963;1817;-53
2022/08/05 00:52:37;;;;;;;;;;;;;;;25.31;45.44;96508.59;30001;983;1877;-53
2022/08/05 00:53:08;;;;;;;;;;;;;;;25.29;45.61;96516.56;30001;983;1877;-56
2022/08/05 00:53:39;;;;;;;;;;;;;;;25.27;45.79;96516.97;30001;983;1877;-53
2022/08/05 00:54:13;;;;;;;;;;;;;;;25.25;45.86;96511.00;30001;983;1804;-55
2022/08/05 00:54:44;;;;;;;;;;;;;;;25.22;46.03;96517.34;30001;982;1877;-59
2022/08/05 00:55:16;;;;;;;;;;;;;;;25.21;46.54;96521.31;30001;982;1864;-53
2022/08/05 00:55:48;;;;;;;;;;;;;;;25.18;46.41;96519.34;30001;985;1855;-55
2022/08/05 00:56:19;;;;;;;;;;;;;;;25.16;46.99;96530.03;30001;982;1881;-58
2022/08/05 00:56:50;;;;;;;;;;;;;;;25.12;46.35;96523.69;30001;982;1881;-57
2022/08/05 00:57:21;;;;;;;;;;;;;;;25.11;46.67;96522.09;30001;983;1881;-53
2022/08/05 00:57:53;;;;;;;;;;;;;;;25.09;46.50;96532.81;30001;983;1881;-55
2022/08/05 00:58:24;;;;;;;;;;;;;;;25.11;44.98;96524.09;30001;983;1881;-55
2022/08/05 00:59:00;;;;;;;;;;;;;;;25.14;43.76;96520.53;30001;983;1881;-54
2022/08/05 00:59:31;;;;;;;;;;;;;;;25.16;44.14;96516.16;30001;983;1881;-53
2022/08/05 01:00:03;;;;;;;;;;;;;;;25.18;43.92;96513.78;30001;983;1881;-53
2022/08/05 01:00:35;;;;;;;;;;;;;;;25.20;44.61;96524.50;30001;983;1881;-57
2022/08/05 01:01:06;;;;;;;;;;;;;;;25.23;44.72;96529.25;30001;983;1868;-58
2022/08/05 01:01:37;;;;;;;;;;;;;;;25.23;44.74;96541.16;30001;982;1872;-59
2022/08/05 01:02:08;;;;;;;;;;;;;;;25.35;42.01;96528.84;30001;982;1881;-56
2022/08/05 01:02:39;;;;;;;;;;;;;;;25.45;41.09;96511.38;30001;982;1881;-56
2022/08/05 01:03:11;;;;;;;;;;;;;;;25.48;40.96;96523.69;30001;982;1785;-61
2022/08/05 01:03:42;;;;;;;;;;;;;;;25.70;39.02;96503.00;30001;982;1881;-59
2022/08/05 01:04:13;;;;;;;;;;;;;;;25.78;39.29;96501.81;30001;982;1882;-59
2022/08/05 01:04:45;;;;;;;;;;;;;;;25.80;39.29;96502.19;30001;982;1882;-59
2022/08/05 01:05:17;;;;;;;;;;;;;;;25.76;39.67;96506.19;30001;983;1881;-56
2022/08/05 01:05:48;;;;;;;;;;;;;;;25.76;39.75;96509.75;30001;983;1868;-59
2022/08/05 01:06:19;;;;;;;;;;;;;;;25.78;39.81;96521.25;30001;983;1872;-60
2022/08/05 01:06:50;;;;;;;;;;;;;;;25.81;39.26;96512.13;30001;983;1881;-57
2022/08/05 01:07:21;;;;;;;;;;;;;;;25.85;39.08;96510.13;30001;983;1881;-58
2022/08/05 01:07:52;;;;;;;;;;;;;;;25.89;39.02;96510.91;30001;983;1868;-57
2022/08/05 01:08:23;;;;;;;;;;;;;;;25.88;39.12;96509.31;30001;983;1872;-58
2022/08/05 01:08:54;;;;;;;;;;;;;;;25.87;38.92;96518.87;30001;983;1881;-60
2022/08/05 01:09:24;;;;;;;;;;;;;;;25.90;39.23;96512.50;30001;965;1885;-57
2022/08/05 01:09:55;;;;;;;;;;;;;;;25.88;39.44;96514.88;30001;982;1873;-56
2022/08/05 01:10:29;;;;;;;;;;;;;;;25.86;39.77;96511.72;30001;982;1881;-59
2022/08/05 01:11:03;;;;;;;;;;;;;;;25.94;39.62;96513.28;30001;982;1868;-59
2022/08/05 01:11:37;;;;;;;;;;;;;;;26.08;39.40;96517.97;30001;982;1873;-59
2022/08/05 01:12:11;;;;;;;;;;;;;;;26.07;39.50;96510.03;30001;982;1831;-56
2022/08/05 01:12:47;;;;;;;;;;;;;;;25.97;39.41;96506.12;30001;983;1867;-58
2022/08/05 01:13:22;;;;;;;;;;;;;;;25.88;40.08;96519.66;30001;983;1872;-57
2022/08/05 01:14:14;;;;;;;;;;;;;;;25.82;40.44;96512.91;30001;983;1881;-57
2022/08/05 01:14:57;;;;;;;;;;;;;;;25.74;40.41;96520.47;30001;983;1876;-58
2022/08/05 01:15:31;;;;;;;;;;;;;;;25.70;40.75;96516.91;30001;983;1881;-58
2022/08/05 01:16:04;;;;;;;;;;;;;;;25.65;40.78;96526.44;30001;983;1881;-57
2022/08/05 01:16:54;;;;;;;;;;;;;;;25.65;41.53;96520.88;30001;982;1769;-57
2022/08/05 01:17:51;;;;;;;;;;;;;;;25.63;41.16;96531.63;30001;982;1868;-54
2022/08/05 01:18:24;;;;;;;;;;;;;;;25.63;41.57;96525.25;30001;982;1877;-57
2022/08/05 01:18:58;;;;;;;;;;;;;;;25.64;41.85;96526.88;30001;982;1881;-57
2022/08/05 01:19:47;;;;;;;;;;;;;;;25.60;41.86;96537.16;30001;982;1882;-58
2022/08/05 01:20:40;;;;;;;;;;;;;;;25.58;42.09;96545.09;30001;983;1872;-57
2022/08/05 01:21:29;;;;;;;;;;;;;;;25.48;42.14;96545.91;30001;983;1876;-57
2022/08/05 01:22:29;;;;;;;;;;;;;;;25.43;42.56;96540.75;30001;983;1868;-58
2022/08/05 01:23:10;;;;;;;;;;;;;;;25.46;42.74;96548.28;30001;983;1855;-54
2022/08/05 01:24:06;;;;;;;;;;;;;;;25.41;42.88;96541.13;30001;983;1881;-54
2022/08/05 01:24:47;;;;;;;;;;;;;;;25.41;42.62;96548.66;30001;982;1881;-57
2022/08/05 01:25:53;;;;;;;;;;;;;;;25.38;42.85;96551.06;30001;982;1868;-54
2022/08/05 01:26:33;;;;;;;;;;;;;;;25.34;42.86;96553.03;30001;982;1868;-56
2022/08/05 01:27:26;;;;;;;;;;;;;;;25.31;43.33;96556.59;30001;982;1882;-56
2022/08/05 01:28:35;;;;;;;;;;;;;;;25.25;44.09;96552.66;30001;983;1863;-53
2022/08/05 01:29:10;;;;;;;;;;;;;;;25.26;43.42;96562.59;30001;983;1868;-54
2022/08/05 01:29:43;;;;;;;;;;;;;;;25.24;43.72;96556.63;30001;983;1868;-55
2022/08/05 01:30:15;;;;;;;;;;;;;;;25.21;44.18;96554.63;30001;983;1872;-55
2022/08/05 01:30:55;;;;;;;;;;;;;;;25.17;44.58;96562.16;30001;983;1881;-58
2022/08/05 01:31:28;;;;;;;;;;;;;;;25.10;44.43;96559.38;30001;983;1881;-55
2022/08/05 01:32:05;;;;;;;;;;;;;;;25.06;44.66;96555.81;30001;982;1881;-55
2022/08/05 01:32:39;;;;;;;;;;;;;;;24.99;45.39;96572.44;30001;982;1881;-54
2022/08/05 01:33:12;;;;;;;;;;;;;;;24.97;45.09;96563.72;30001;982;1868;-56
2022/08/05 01:33:48;;;;;;;;;;;;;;;24.94;44.77;96567.28;30001;982;1792;-53
2022/08/05 01:34:25;;;;;;;;;;;;;;;24.98;44.55;96566.09;30001;983;1881;-58
2022/08/05 01:34:58;;;;;;;;;;;;;;;25.00;44.92;96571.25;30001;983;1881;-56
2022/08/05 01:35:30;;;;;;;;;;;;;;;24.98;44.58;96570.87;30001;983;1881;-53
2022/08/05 01:36:06;;;;;;;;;;;;;;;25.02;44.95;96568.88;30001;983;1881;-56
2022/08/05 01:36:58;;;;;;;;;;;;;;;25.00;44.81;96583.16;30001;983;1881;-57
2022/08/05 01:37:35;;;;;;;;;;;;;;;24.97;44.89;96572.03;30001;983;1876;-53
2022/08/05 01:38:07;;;;;;;;;;;;;;;25.00;45.07;96576.81;30001;983;1881;-60
2022/08/05 01:38:39;;;;;;;;;;;;;;;25.10;44.71;96580.81;30001;983;1868;-64
2022/08/05 01:39:11;;;;;;;;;;;;;;;25.11;45.02;96577.63;30001;983;1872;-53
2022/08/05 01:39:44;;;;;;;;;;;;;;;25.07;45.23;96585.16;30001;982;1881;-57
2022/08/05 01:40:16;;;;;;;;;;;;;;;25.02;44.87;96568.88;30001;982;1881;-56
2022/08/05 01:40:51;;;;;;;;;;;;;;;25.00;45.50;96585.94;30001;982;1881;-53
2022/08/05 01:41:24;;;;;;;;;;;;;;;25.10;45.04;96587.16;30001;982;1881;-54
2022/08/05 01:41:55;;;;;;;;;;;;;;;25.10;45.37;96583.56;30001;983;1881;-56
2022/08/05 01:42:28;;;;;;;;;;;;;;;25.03;45.58;96587.13;30001;983;1880;-57
2022/08/05 01:43:01;;;;;;;;;;;;;;;24.99;45.59;96592.69;30001;983;1881;-58
2022/08/05 01:43:32;;;;;;;;;;;;;;;24.96;45.46;96584.34;30001;983;1881;-56
2022/08/05 01:44:05;;;;;;;;;;;;;;;24.96;45.50;96592.66;30001;983;1868;-55
2022/08/05 01:44:38;;;;;;;;;;;;;;;24.96;45.70;96592.66;30001;983;1872;-56
2022/08/05 01:45:09;;;;;;;;;;;;;;;24.93;45.58;96591.47;30001;983;1868;-56
2022/08/05 01:45:44;;;;;;;;;;;;;;;24.87;45.42;96586.69;30001;983;1872;-57
2022/08/05 01:46:17;;;;;;;;;;;;;;;24.92;46.00;96602.97;30001;983;1881;-54
2022/08/05 01:46:48;;;;;;;;;;;;;;;24.89;45.88;96599.00;30001;982;1881;-57
2022/08/05 01:47:20;;;;;;;;;;;;;;;24.86;46.32;96597.00;30001;982;1881;-53
2022/08/05 01:47:53;;;;;;;;;;;;;;;24.87;46.16;96595.00;30001;982;1881;-52
2022/08/05 01:48:30;;;;;;;;;;;;;;;24.88;46.02;96596.59;30001;982;1881;-54
2022/08/05 01:49:04;;;;;;;;;;;;;;;24.86;45.89;96596.19;30001;982;1881;-55
2022/08/05 01:49:41;;;;;;;;;;;;;;;24.80;46.33;96604.13;30001;983;1881;-57
2022/08/05 01:50:35;;;;;;;;;;;;;;;24.73;46.54;96593.78;30001;983;1868;-56
2022/08/05 01:51:08;;;;;;;;;;;;;;;24.73;46.69;96595.75;30001;983;1867;-52
2022/08/05 01:51:39;;;;;;;;;;;;;;;24.70;46.27;96602.88;30001;983;1881;-54
2022/08/05 01:52:10;;;;;;;;;;;;;;;24.66;47.32;96601.28;30001;983;1881;-58
2022/08/05 01:52:43;;;;;;;;;;;;;;;24.59;47.19;96606.84;30001;983;1881;-56
2022/08/05 01:53:16;;;;;;;;;;;;;;;24.54;47.16;96615.53;30001;983;1881;-63
2022/08/05 01:53:52;;;;;;;;;;;;;;;24.62;47.12;96612.38;30002;795;1015;-57
2022/08/05 01:54:24;;;;;;;;;;;;;;;24.67;47.09;96605.66;30001;982;1873;-54
2022/08/05 01:54:56;;;;;;;;;;;;;;;24.60;47.13;96611.97;30001;982;1881;-54
2022/08/05 01:55:28;;;;;;;;;;;;;;;24.61;47.39;96616.31;30001;982;1881;-54
2022/08/05 01:56:00;;;;;;;;;;;;;;;24.64;47.09;96610.00;30001;982;1882;-59
2022/08/05 01:56:33;;;;;;;;;;;;;;;24.69;47.27;96604.06;30001;982;1882;-56
2022/08/05 01:57:05;;;;;;;;;;;;;;;24.72;46.66;96605.28;30001;983;1880;-55
2022/08/05 01:57:39;;;;;;;;;;;;;;;24.67;47.20;96614.75;30001;983;1881;-54
2022/08/05 01:58:12;;;;;;;;;;;;;;;24.61;47.10;96604.44;30001;983;1881;-60
2022/08/05 01:58:45;;;;;;;;;;;;;;;24.58;47.32;96606.03;30001;983;1881;-58
2022/08/05 01:59:17;;;;;;;;;;;;;;;24.53;47.40;96609.19;30001;983;1868;-63
2022/08/05 01:59:48;;;;;;;;;;;;;;;24.59;47.43;96613.19;30001;983;1872;-59
2022/08/05 02:00:19;;;;;;;;;;;;;;;24.59;47.27;96607.63;30001;983;1881;-60
2022/08/05 02:00:51;;;;;;;;;;;;;;;24.58;47.50;96608.03;30001;983;1881;-58
2022/08/05 02:01:26;;;;;;;;;;;;;;;24.54;47.78;96605.22;30001;982;1868;-57
2022/08/05 02:01:59;;;;;;;;;;;;;;;24.51;47.47;96613.53;30001;982;1873;-58
2022/08/05 02:02:31;;;;;;;;;;;;;;;24.46;47.48;96609.16;30001;982;1881;-54
2022/08/05 02:03:16;;;;;;;;;;;;;;;24.45;47.92;96607.56;30001;982;1881;-57
2022/08/05 02:03:48;;;;;;;;;;;;;;;24.39;48.65;96609.13;30001;982;1868;-58
2022/08/05 02:04:19;;;;;;;;;;;;;;;24.36;48.16;96601.56;30001;982;1873;-57
2022/08/05 02:04:51;;;;;;;;;;;;;;;24.34;47.89;96601.16;30001;983;1881;-57
2022/08/05 02:05:29;;;;;;;;;;;;;;;24.31;47.95;96601.94;30001;983;1881;-57
2022/08/05 02:06:01;;;;;;;;;;;;;;;24.31;48.30;96607.50;30001;983;1881;-57
2022/08/05 02:06:33;;;;;;;;;;;;;;;24.31;48.30;96607.50;30001;983;1881;-58
2022/08/05 02:07:04;;;;;;;;;;;;;;;24.35;47.94;96597.22;30001;983;1881;-61
2022/08/05 02:07:35;;;;;;;;;;;;;;;24.36;48.35;96607.13;30001;983;1881;-60
2022/08/05 02:08:06;;;;;;;;;;;;;;;24.37;48.23;96603.97;30001;983;1881;-59
2022/08/05 02:08:41;;;;;;;;;;;;;;;24.39;48.31;96598.03;30001;982;1868;-61
2022/08/05 02:09:12;;;;;;;;;;;;;;;24.45;48.01;96604.00;30001;982;1872;-59
2022/08/05 02:09:47;;;;;;;;;;;;;;;24.43;48.23;96598.84;30001;982;1881;-58
2022/08/05 02:10:17;;;;;;;;;;;;;;;24.43;48.04;96606.38;30001;982;1881;-59
2022/08/05 02:10:50;;;;;;;;;;;;;;;24.41;48.11;96605.94;30001;982;1868;-57
2022/08/05 02:11:22;;;;;;;;;;;;;;;24.37;47.94;96603.16;30001;982;1873;-57
2022/08/05 02:12:13;;;;;;;;;;;;;;;24.33;48.36;96605.91;30001;982;1882;-57
2022/08/05 02:13:02;;;;;;;;;;;;;;;24.30;48.39;96600.34;30001;983;1876;-56
2022/08/05 02:14:01;;;;;;;;;;;;;;;24.23;49.16;96601.09;30001;983;1881;-61
2022/08/05 02:14:33;;;;;;;;;;;;;;;24.26;48.82;96600.34;30001;983;1863;-57
2022/08/05 02:15:26;;;;;;;;;;;;;;;24.25;48.82;96592.44;30001;983;1872;-59
2022/08/05 02:16:02;;;;;;;;;;;;;;;24.21;48.64;96602.69;30001;983;1881;-57
2022/08/05 02:17:02;;;;;;;;;;;;;;;24.19;48.88;96591.19;30001;982;1881;-58
2022/08/05 02:17:37;;;;;;;;;;;;;;;24.25;49.01;96597.97;30001;982;1877;-59
2022/08/05 02:18:25;;;;;;;;;;;;;;;24.30;48.85;96597.59;30001;982;1881;-57
2022/08/05 02:19:05;;;;;;;;;;;;;;;24.31;48.56;96596.41;30001;982;1882;-58
2022/08/05 02:19:41;;;;;;;;;;;;;;;24.26;48.71;96605.09;30001;983;1867;-57
2022/08/05 02:20:15;;;;;;;;;;;;;;;24.21;48.79;96591.59;30001;983;1859;-57
2022/08/05 02:20:54;;;;;;;;;;;;;;;24.16;49.03;96595.53;30001;983;1881;-55
2022/08/05 02:21:31;;;;;;;;;;;;;;;24.13;48.88;96599.06;30001;983;1881;-58
2022/08/05 02:22:24;;;;;;;;;;;;;;;24.11;49.23;96595.09;30001;983;1881;-58
2022/08/05 02:23:02;;;;;;;;;;;;;;;24.06;49.36;96591.50;30001;983;1877;-55
2022/08/05 02:23:36;;;;;;;;;;;;;;;24.04;49.23;96596.63;30001;983;1881;-57
2022/08/05 02:24:10;;;;;;;;;;;;;;;24.02;49.23;96610.09;30001;982;1881;-58
2022/08/05 02:24:43;;;;;;;;;;;;;;;24.00;49.43;96604.13;30001;961;1806;-54
2022/08/05 02:25:17;;;;;;;;;;;;;;;23.98;49.76;96611.25;30001;982;1868;-57
2022/08/05 02:25:50;;;;;;;;;;;;;;;23.96;49.59;96611.63;30001;982;1873;-58
2022/08/05 02:26:26;;;;;;;;;;;;;;;23.97;49.63;96604.13;30001;983;1830;-57
2022/08/05 02:27:02;;;;;;;;;;;;;;;24.03;49.75;96608.91;30001;983;1881;-59
2022/08/05 02:27:35;;;;;;;;;;;;;;;24.04;49.71;96616.03;30002;802;1013;-57
2022/08/05 02:28:07;;;;;;;;;;;;;;;24.00;49.73;96603.34;30001;983;1881;-60
2022/08/05 02:28:40;;;;;;;;;;;;;;;24.00;49.67;96611.66;30001;983;1868;-57
2022/08/05 02:29:12;;;;;;;;;;;;;;;23.99;49.98;96616.41;30001;983;1872;-58
2022/08/05 02:29:44;;;;;;;;;;;;;;;24.01;49.78;96610.47;30001;986;1881;-58
2022/08/05 02:30:15;;;;;;;;;;;;;;;24.03;49.90;96608.91;30001;983;1881;-58
2022/08/05 02:30:49;;;;;;;;;;;;;;;24.06;49.69;96612.88;30001;983;1881;-56
2022/08/05 02:31:26;;;;;;;;;;;;;;;24.02;50.27;96612.84;30001;982;1881;-57
2022/08/05 02:31:58;;;;;;;;;;;;;;;23.97;49.70;96610.44;30001;982;1881;-58
2022/08/05 02:32:30;;;;;;;;;;;;;;;23.95;50.10;96612.00;30001;982;1881;-56
2022/08/05 02:33:02;;;;;;;;;;;;;;;23.94;49.92;96605.69;30001;982;1881;-58
2022/08/05 02:33:40;;;;;;;;;;;;;;;23.98;50.28;96605.69;30001;982;1803;-57
2022/08/05 02:34:14;;;;;;;;;;;;;;;24.01;49.93;96608.50;30001;983;1867;-56
2022/08/05 02:34:45;;;;;;;;;;;;;;;24.01;49.79;96605.72;30001;983;1872;-58
2022/08/05 02:35:18;;;;;;;;;;;;;;;23.99;49.78;96602.53;30001;983;1881;-57
2022/08/05 02:35:50;;;;;;;;;;;;;;;23.96;49.96;96600.53;30001;983;1881;-58
2022/08/05 02:36:22;;;;;;;;;;;;;;;23.99;50.02;96607.28;30001;983;1881;-54
2022/08/05 02:36:54;;;;;;;;;;;;;;;23.97;50.08;96604.91;30001;983;1881;-59
2022/08/05 02:37:26;;;;;;;;;;;;;;;24.00;50.07;96601.37;30001;983;1881;-55
2022/08/05 02:37:58;;;;;;;;;;;;;;;23.98;50.14;96609.28;30001;983;1881;-57
2022/08/05 02:38:32;;;;;;;;;;;;;;;23.96;50.44;96611.63;30001;983;1881;-59
2022/08/05 02:39:05;;;;;;;;;;;;;;;23.95;50.35;96612.81;30001;982;1881;-57
2022/08/05 02:39:37;;;;;;;;;;;;;;;23.98;50.24;96611.25;30001;982;1770;-57
2022/08/05 02:40:09;;;;;;;;;;;;;;;23.98;50.23;96609.28;30001;982;1873;-54
2022/08/05 02:40:41;;;;;;;;;;;;;;;24.03;50.09;96606.12;30001;982;1881;-58
2022/08/05 02:41:13;;;;;;;;;;;;;;;24.02;50.20;96607.31;30001;970;1901;-57
2022/08/05 02:41:46;;;;;;;;;;;;;;;24.04;50.05;96610.50;30001;983;1881;-59
2022/08/05 02:42:18;;;;;;;;;;;;;;;24.03;50.00;96608.13;30001;983;1881;-58
2022/08/05 02:42:52;;;;;;;;;;;;;;;24.01;50.13;96605.72;30001;983;1881;-55
2022/08/05 02:43:24;;;;;;;;;;;;;;;23.97;50.35;96599.38;30001;983;1881;-58
2022/08/05 02:43:56;;;;;;;;;;;;;;;23.94;50.28;96611.22;30001;983;1881;-55
2022/08/05 02:44:27;;;;;;;;;;;;;;;23.91;50.38;96605.69;30001;983;1881;-58
2022/08/05 02:44:59;;;;;;;;;;;;;;;23.87;51.31;96622.28;30001;983;1868;-54
2022/08/05 02:45:32;;;;;;;;;;;;;;;23.85;50.91;96618.31;30001;983;1872;-57
2022/08/05 02:46:04;;;;;;;;;;;;;;;23.83;50.84;96613.16;30001;983;1881;-58
2022/08/05 02:46:35;;;;;;;;;;;;;;;23.84;50.84;96617.50;30001;982;1881;-58
2022/08/05 02:47:08;;;;;;;;;;;;;;;23.83;50.92;96623.44;30001;982;1881;-57
2022/08/05 02:47:39;;;;;;;;;;;;;;;23.80;50.51;96616.69;30001;982;1881;-54
2022/08/05 02:48:10;;;;;;;;;;;;;;;23.79;50.71;96617.87;30001;982;1881;-58
2022/08/05 02:48:41;;;;;;;;;;;;;;;23.76;50.97;96624.16;30001;982;1881;-59
2022/08/05 02:49:15;;;;;;;;;;;;;;;23.76;51.13;96617.84;30001;983;1881;-57
2022/08/05 02:49:47;;;;;;;;;;;;;;;23.75;50.90;96621.78;30001;983;1881;-57
2022/08/05 02:50:19;;;;;;;;;;;;;;;23.76;51.16;96621.41;30001;983;1868;-57
2022/08/05 02:50:51;;;;;;;;;;;;;;;23.74;50.86;96623.75;30001;983;1872;-57
2022/08/05 02:51:23;;;;;;;;;;;;;;;23.72;51.34;96621.38;30001;983;1881;-57
2022/08/05 02:51:55;;;;;;;;;;;;;;;23.68;51.78;96625.28;30001;983;1881;-59
2022/08/05 02:52:26;;;;;;;;;;;;;;;23.65;51.54;96612.22;30001;983;1881;-58
2022/08/05 02:52:58;;;;;;;;;;;;;;;23.63;51.63;96620.09;30001;983;1881;-58
2022/08/05 02:53:31;;;;;;;;;;;;;;;23.61;51.44;96614.16;30001;983;1881;-58
2022/08/05 02:54:03;;;;;;;;;;;;;;;23.61;51.68;96614.16;30001;982;1881;-58
2022/08/05 02:54:35;;;;;;;;;;;;;;;23.62;51.43;96615.75;30001;982;1881;-58
2022/08/05 02:55:07;;;;;;;;;;;;;;;23.63;51.87;96622.88;30001;982;1881;-58
2022/08/05 02:55:39;;;;;;;;;;;;;;;23.64;51.62;96628.03;30001;982;1868;-58
2022/08/05 02:56:11;;;;;;;;;;;;;;;23.69;51.48;96626.88;30001;982;1873;-59
2022/08/05 02:56:42;;;;;;;;;;;;;;;23.71;51.03;96619.00;30001;983;1815;-59
2022/08/05 02:57:14;;;;;;;;;;;;;;;23.72;51.35;96620.59;30001;983;1881;-57
2022/08/05 02:57:45;;;;;;;;;;;;;;;23.70;51.08;96620.16;30001;983;1881;-58
2022/08/05 02:58:17;;;;;;;;;;;;;;;23.73;51.35;96616.63;30001;983;1881;-59
2022/08/05 02:58:50;;;;;;;;;;;;;;;23.75;51.27;96617.03;30001;983;1881;-58
2022/08/05 02:59:26;;;;;;;;;;;;;;;23.73;51.50;96628.50;30001;983;1881;-58
2022/08/05 02:59:58;;;;;;;;;;;;;;;23.70;51.33;96612.66;30001;983;1881;-57
2022/08/05 03:00:30;;;;;;;;;;;;;;;23.67;51.52;96613.41;30001;983;1868;-54
2022/08/05 03:01:01;;;;;;;;;;;;;;;23.65;51.25;96614.97;30001;982;1872;-57
2022/08/05 03:01:34;;;;;;;;;;;;;;;23.62;51.46;96615.75;30001;971;1892;-57